createdAt,value
2023-02-09T05:00:24.532Z,16.10
2023-02-09T05:11:29.395Z,19.60
2023-02-09T05:22:29.276Z,18.50
2023-02-09T05:33:29.152Z,16.70
2023-02-09T05:44:29.081Z,17.10
2023-02-09T05:55:28.899Z,17.10
2023-02-09T06:06:28.773Z,13.10
2023-02-09T06:17:28.660Z,16.90
2023-02-09T06:28:28.616Z,15.80
2023-02-09T06:39:28.417Z,16.20
2023-02-09T06:50:28.301Z,22.50
2023-02-09T07:01:28.268Z,20.80
2023-02-09T07:12:28.067Z,17.40
2023-02-09T07:23:27.942Z,15.20
2023-02-09T07:34:27.814Z,12.40
2023-02-09T07:45:27.698Z,15.00
2023-02-09T07:56:27.571Z,17.00
2023-02-09T08:07:28.441Z,16.40
2023-02-09T08:18:27.313Z,18.80
2023-02-09T08:29:28.196Z,15.90
2023-02-09T08:40:27.084Z,22.80
2023-02-09T08:51:26.951Z,14.10
2023-02-09T09:02:26.832Z,16.60
2023-02-09T09:13:26.744Z,23.70
2023-02-09T09:24:26.589Z,18.10
2023-02-09T09:35:26.475Z,22.60
2023-02-09T09:46:26.449Z,22.70
2023-02-09T09:57:26.231Z,21.60
2023-02-09T10:08:26.093Z,17.80
2023-02-09T10:19:25.985Z,25.00
2023-02-09T10:30:25.847Z,20.60
2023-02-09T10:41:25.715Z,26.60
2023-02-09T10:52:25.598Z,22.90
2023-02-09T11:03:25.539Z,21.30
2023-02-09T11:14:25.348Z,24.30
2023-02-09T11:25:25.218Z,22.30
2023-02-09T11:36:25.092Z,24.70
2023-02-09T11:47:24.973Z,27.20
2023-02-09T11:58:24.870Z,21.80
2023-02-09T12:09:24.744Z,25.90
2023-02-09T12:20:24.600Z,25.60
2023-02-09T12:31:24.647Z,32.10
2023-02-09T12:42:24.345Z,29.20
2023-02-09T12:53:24.227Z,28.10
2023-02-09T13:04:24.113Z,30.60
2023-02-09T13:15:23.983Z,31.40
2023-02-09T13:26:23.850Z,21.70
2023-02-09T13:37:24.747Z,21.30
2023-02-09T13:48:23.602Z,29.30
2023-02-09T13:59:23.478Z,25.10
2023-02-09T14:10:23.357Z,28.50
2023-02-09T14:21:23.277Z,26.50
2023-02-09T14:32:32.689Z,27.50
2023-02-09T14:43:22.975Z,25.30
2023-02-09T14:54:22.856Z,22.80
2023-02-09T15:05:22.757Z,25.30
2023-02-09T15:16:22.638Z,26.30
2023-02-09T15:27:22.503Z,23.70
2023-02-09T15:38:22.370Z,23.60
2023-02-09T15:49:22.228Z,22.00
2023-02-09T16:00:22.106Z,23.10
2023-02-09T16:11:22.011Z,24.20
2023-02-09T16:22:21.857Z,25.20
2023-02-09T16:33:21.748Z,21.50
2023-02-09T16:44:21.637Z,29.30
2023-02-09T16:55:21.547Z,28.80
2023-02-09T17:06:21.368Z,25.80
2023-02-09T17:17:21.244Z,21.80
2023-02-09T17:28:21.192Z,24.70
2023-02-09T17:39:20.996Z,26.40
2023-02-09T17:50:20.882Z,29.70
2023-02-09T18:01:20.800Z,20.10
2023-02-09T18:12:20.653Z,28.00
2023-02-09T18:23:20.498Z,39.40
2023-02-09T18:34:20.380Z,17.10
2023-02-09T18:45:20.269Z,32.40
2023-02-09T18:56:20.129Z,33.10
2023-02-09T19:07:20.035Z,28.50
2023-02-09T19:18:19.894Z,24.90
2023-02-09T19:29:19.763Z,25.30
2023-02-09T19:40:19.636Z,31.30
2023-02-09T19:51:19.528Z,33.90
2023-02-09T20:02:19.401Z,33.30
2023-02-09T20:13:19.284Z,36.40
2023-02-09T20:24:19.160Z,38.10
2023-02-09T20:35:19.031Z,23.70
2023-02-09T20:46:18.906Z,37.90
2023-02-09T20:57:18.784Z,37.30
2023-02-09T21:08:18.685Z,30.60
2023-02-09T21:19:18.552Z,30.00
2023-02-09T21:30:18.421Z,31.40
2023-02-09T21:41:18.309Z,30.80
2023-02-09T21:52:18.214Z,32.20
